createdAt,value
2022-10-23T00:00:21.334Z,99.90
2022-10-23T00:01:35.044Z,99.90
2022-10-23T00:02:36.993Z,99.90
2022-10-23T00:03:39.311Z,99.90
2022-10-23T00:04:41.118Z,99.90
2022-10-23T00:05:43.042Z,99.90
2022-10-23T00:06:46.019Z,99.90
2022-10-23T00:07:56.202Z,99.90
2022-10-23T00:08:58.070Z,99.90
2022-10-23T00:09:59.888Z,99.90
2022-10-23T00:11:05.804Z,99.90
2022-10-23T00:12:08.552Z,99.90
2022-10-23T00:13:10.602Z,99.90
2022-10-23T00:14:12.439Z,99.90
2022-10-23T00:15:16.044Z,99.90
2022-10-23T00:16:18.045Z,99.90
2022-10-23T00:17:19.863Z,99.90
2022-10-23T00:18:21.677Z,99.90
2022-10-23T00:19:23.662Z,99.90
2022-10-23T00:20:25.634Z,99.90
2022-10-23T00:21:27.938Z,99.90
2022-10-23T00:22:29.863Z,99.90
2022-10-23T00:23:31.673Z,99.90
2022-10-23T00:24:33.601Z,99.90
2022-10-23T00:25:35.421Z,99.90
2022-10-23T00:26:40.742Z,99.90
2022-10-23T00:27:43.225Z,99.90
2022-10-23T00:28:47.904Z,99.90
2022-10-23T00:29:49.859Z,99.90
2022-10-23T00:30:51.714Z,99.90
2022-10-23T00:31:53.613Z,99.90
2022-10-23T00:32:55.613Z,99.90
2022-10-23T00:33:57.552Z,99.90
2022-10-23T00:34:59.772Z,99.90
2022-10-23T00:36:07.588Z,99.90
2022-10-23T00:37:09.552Z,99.90
2022-10-23T00:38:12.160Z,99.90
2022-10-23T00:39:14.109Z,99.90
2022-10-23T00:40:16.060Z,99.90
2022-10-23T00:41:28.544Z,99.90
2022-10-23T00:42:30.397Z,99.90
2022-10-23T00:43:33.348Z,99.90
2022-10-23T00:44:35.271Z,99.90
2022-10-23T00:45:37.104Z,99.90
2022-10-23T00:46:40.162Z,99.90
2022-10-23T00:47:42.207Z,99.90
2022-10-23T00:48:44.016Z,99.90
2022-10-23T00:49:45.984Z,99.90
2022-10-23T00:50:49.267Z,99.90
2022-10-23T00:51:55.642Z,99.90
2022-10-23T00:53:00.929Z,99.90
2022-10-23T00:54:24.121Z,99.90
2022-10-23T00:55:28.345Z,99.90
2022-10-23T00:56:31.823Z,99.90
2022-10-23T00:57:33.749Z,99.90
2022-10-23T00:58:35.756Z,99.90
2022-10-23T00:59:38.203Z,99.90
2022-10-23T01:00:48.829Z,99.90
2022-10-23T01:01:51.723Z,99.90
2022-10-23T01:02:56.545Z,99.90
2022-10-23T01:03:58.739Z,99.90
2022-10-23T01:05:00.630Z,99.90
2022-10-23T01:06:23.271Z,99.90
2022-10-23T01:07:35.087Z,99.90
2022-10-23T01:08:55.858Z,99.90
2022-10-23T01:10:16.244Z,99.90
2022-10-23T01:11:28.299Z,99.90
2022-10-23T01:13:11.434Z,99.90
2022-10-23T01:14:17.283Z,99.90
2022-10-23T01:15:42.663Z,99.90
2022-10-23T01:17:33.529Z,99.90
2022-10-23T01:18:47.343Z,99.90
2022-10-23T01:20:13.965Z,99.90
2022-10-23T01:21:47.702Z,99.90
2022-10-23T01:23:07.755Z,99.90
2022-10-23T01:24:37.455Z,99.90
2022-10-23T01:26:14.718Z,99.90
2022-10-23T01:27:20.565Z,99.90
2022-10-23T01:28:36.283Z,99.90
2022-10-23T01:29:45.076Z,99.90
2022-10-23T01:30:48.616Z,99.90
2022-10-23T01:31:59.495Z,99.90
2022-10-23T01:33:26.114Z,99.90
2022-10-23T01:34:43.023Z,99.90
2022-10-23T01:35:53.839Z,99.90
2022-10-23T01:36:59.184Z,99.90
2022-10-23T01:38:13.259Z,99.90
2022-10-23T01:39:24.774Z,99.90
2022-10-23T01:41:09.727Z,99.90
2022-10-23T01:42:17.074Z,99.90
2022-10-23T01:43:27.893Z,99.90
2022-10-23T01:44:41.889Z,99.90
2022-10-23T01:45:50.865Z,99.90
2022-10-23T01:46:57.196Z,99.90
2022-10-23T01:48:03.453Z,99.90
2022-10-23T01:49:09.294Z,99.90
2022-10-23T01:50:14.879Z,99.90
2022-10-23T01:51:22.058Z,99.90
2022-10-23T01:52:24.877Z,99.90
2022-10-23T01:53:31.694Z,99.90
2022-10-23T01:54:38.779Z,99.90
2022-10-23T01:55:43.018Z,99.90
2022-10-23T01:56:52.772Z,99.90
2022-10-23T01:58:01.008Z,99.90
2022-10-23T01:59:14.609Z,99.90
2022-10-23T02:00:18.762Z,99.90
2022-10-23T02:01:29.465Z,99.90
2022-10-23T02:02:34.147Z,99.90
2022-10-23T02:03:39.681Z,99.90
2022-10-23T02:05:03.335Z,99.90
2022-10-23T02:06:05.541Z,99.90
2022-10-23T02:07:07.625Z,99.90
2022-10-23T02:08:09.627Z,99.90
2022-10-23T02:09:11.941Z,99.90
2022-10-23T02:10:17.160Z,99.90
2022-10-23T02:11:21.791Z,99.90
2022-10-23T02:12:38.445Z,99.90
2022-10-23T02:14:05.717Z,99.90
2022-10-23T02:15:14.895Z,99.90
2022-10-23T02:16:30.078Z,99.90
2022-10-23T02:17:37.531Z,99.90
2022-10-23T02:18:54.075Z,99.90
2022-10-23T02:20:08.204Z,99.90
2022-10-23T02:21:13.991Z,99.90
2022-10-23T02:22:26.256Z,99.90
2022-10-23T02:23:36.398Z,99.90
2022-10-23T02:24:51.864Z,99.90
2022-10-23T02:26:12.974Z,99.90
2022-10-23T02:27:28.126Z,99.90
2022-10-23T02:28:39.734Z,99.90
2022-10-23T02:29:53.327Z,99.90
2022-10-23T02:30:59.649Z,99.90
2022-10-23T02:32:02.731Z,99.90
2022-10-23T02:33:07.052Z,99.90
2022-10-23T02:34:10.596Z,99.90
2022-10-23T02:35:13.109Z,99.90
2022-10-23T02:36:16.378Z,99.90
2022-10-23T02:37:18.506Z,99.90
2022-10-23T02:38:30.524Z,99.90
2022-10-23T02:39:32.556Z,99.90
2022-10-23T02:40:41.759Z,99.90
2022-10-23T02:41:56.654Z,99.90
2022-10-23T02:43:05.909Z,99.90
2022-10-23T02:44:51.139Z,99.90
2022-10-23T02:46:16.964Z,99.90
2022-10-23T02:47:24.689Z,99.90
2022-10-23T02:48:45.823Z,99.90
2022-10-23T02:50:18.324Z,99.90
2022-10-23T02:51:44.685Z,99.90
2022-10-23T02:53:01.820Z,99.90
2022-10-23T02:54:50.037Z,99.90
2022-10-23T02:56:11.087Z,99.90
2022-10-23T02:57:22.688Z,99.90
2022-10-23T02:58:28.431Z,99.90
2022-10-23T02:59:47.553Z,99.90
2022-10-23T03:00:57.556Z,99.90
2022-10-23T03:02:27.001Z,99.90
2022-10-23T03:03:42.424Z,99.90
2022-10-23T03:04:45.325Z,99.90
2022-10-23T03:05:47.414Z,99.90
2022-10-23T03:06:51.114Z,99.90
2022-10-23T03:07:53.109Z,99.90
2022-10-23T03:08:59.156Z,99.90
2022-10-23T03:10:02.061Z,99.90
2022-10-23T03:11:05.445Z,99.90
2022-10-23T03:12:07.474Z,99.90
2022-10-23T03:13:11.120Z,99.90
2022-10-23T03:14:16.641Z,99.90
2022-10-23T03:15:20.079Z,99.90
2022-10-23T03:16:24.565Z,99.90
2022-10-23T03:17:28.922Z,99.90
2022-10-23T03:18:33.232Z,99.90
2022-10-23T03:19:35.641Z,99.90
2022-10-23T03:20:39.339Z,99.90
2022-10-23T03:21:41.272Z,99.90
2022-10-23T03:22:44.143Z,99.90
2022-10-23T03:23:46.263Z,99.90
2022-10-23T03:24:52.642Z,99.90
2022-10-23T03:25:56.055Z,99.90
2022-10-23T03:27:13.612Z,99.90
2022-10-23T03:28:15.442Z,99.90
2022-10-23T03:29:18.262Z,99.90
2022-10-23T03:30:21.161Z,99.90
2022-10-23T03:31:27.834Z,99.90
2022-10-23T03:32:33.468Z,99.90
2022-10-23T03:33:35.340Z,99.90
2022-10-23T03:34:43.414Z,99.90
2022-10-23T03:35:45.753Z,99.90
2022-10-23T03:36:49.974Z,99.90
2022-10-23T03:37:54.881Z,99.90
2022-10-23T03:39:00.407Z,99.90
2022-10-23T03:40:03.150Z,99.90
2022-10-23T03:41:08.237Z,99.90
2022-10-23T03:42:10.203Z,99.90
2022-10-23T03:43:12.368Z,99.90
2022-10-23T03:44:14.328Z,99.90
2022-10-23T03:45:19.767Z,99.90
2022-10-23T03:46:23.168Z,99.90
2022-10-23T03:47:30.463Z,99.90
2022-10-23T03:48:32.766Z,99.90
2022-10-23T03:49:34.708Z,99.90
2022-10-23T03:50:40.735Z,99.90
2022-10-23T03:51:44.047Z,99.90
2022-10-23T03:52:46.152Z,99.90
2022-10-23T03:53:48.252Z,99.90
2022-10-23T03:54:51.220Z,99.90
2022-10-23T03:55:53.139Z,99.90
2022-10-23T03:56:57.487Z,99.90
2022-10-23T03:58:00.877Z,99.90
2022-10-23T03:59:03.025Z,99.90
2022-10-23T04:00:06.888Z,99.90
2022-10-23T04:01:18.261Z,99.90
2022-10-23T04:02:21.552Z,99.90
2022-10-23T04:03:24.122Z,99.90
2022-10-23T04:04:27.106Z,99.90
2022-10-23T04:05:29.083Z,99.90
2022-10-23T04:06:33.809Z,99.90
2022-10-23T04:07:36.663Z,99.90
2022-10-23T04:08:39.147Z,99.90
2022-10-23T04:09:47.868Z,99.90
2022-10-23T04:10:51.491Z,99.90
2022-10-23T04:11:57.254Z,99.90
2022-10-23T04:13:02.981Z,99.90
2022-10-23T04:14:13.638Z,99.90
2022-10-23T04:15:15.724Z,99.90
2022-10-23T04:16:20.578Z,99.90
2022-10-23T04:17:22.994Z,99.90
2022-10-23T04:18:24.962Z,99.90
2022-10-23T04:19:27.420Z,99.90
2022-10-23T04:20:32.230Z,99.90
2022-10-23T04:21:37.483Z,99.90
2022-10-23T04:22:39.342Z,99.90
2022-10-23T04:23:41.177Z,99.90
2022-10-23T04:24:48.273Z,99.90
2022-10-23T04:25:56.966Z,99.90
2022-10-23T04:26:59.945Z,99.90
2022-10-23T04:28:04.626Z,99.90
2022-10-23T04:29:11.358Z,99.90
2022-10-23T04:30:13.514Z,99.90
2022-10-23T04:31:15.623Z,99.90
2022-10-23T04:32:18.569Z,99.90
2022-10-23T04:33:20.595Z,99.90
2022-10-23T04:34:25.120Z,99.90
2022-10-23T04:35:28.726Z,99.90
2022-10-23T04:36:30.731Z,99.90
2022-10-23T04:37:37.974Z,99.90
2022-10-23T04:38:41.242Z,99.90
2022-10-23T04:39:43.160Z,99.90
2022-10-23T04:40:48.310Z,99.90
2022-10-23T04:41:55.006Z,99.90
2022-10-23T04:43:00.032Z,99.90
2022-10-23T04:44:07.274Z,99.90
2022-10-23T04:45:12.850Z,99.90
2022-10-23T04:46:16.874Z,99.90
2022-10-23T04:47:22.009Z,99.90
2022-10-23T04:48:32.786Z,99.90
2022-10-23T04:50:04.294Z,99.90
2022-10-23T04:51:32.113Z,99.90
2022-10-23T04:52:44.548Z,99.90
2022-10-23T04:54:13.262Z,99.90
2022-10-23T04:55:21.094Z,99.90
2022-10-23T04:56:40.660Z,99.90
2022-10-23T04:57:47.372Z,99.90
2022-10-23T04:58:51.532Z,99.90
2022-10-23T04:59:53.416Z,99.90
2022-10-23T05:00:55.833Z,99.90
2022-10-23T05:02:00.598Z,99.90
2022-10-23T05:03:03.542Z,99.90
2022-10-23T05:04:16.727Z,99.90
2022-10-23T05:05:37.445Z,99.90
2022-10-23T05:06:57.825Z,99.90
2022-10-23T05:08:28.654Z,99.90
2022-10-23T05:09:45.648Z,99.90
2022-10-23T05:11:10.499Z,99.90
2022-10-23T05:12:18.542Z,99.90
2022-10-23T05:13:21.173Z,99.90
2022-10-23T05:14:23.641Z,99.90
2022-10-23T05:15:25.730Z,99.90
2022-10-23T05:16:36.527Z,99.90
2022-10-23T05:17:43.010Z,99.90
2022-10-23T05:18:48.322Z,99.90
2022-10-23T05:19:54.122Z,99.90
2022-10-23T05:21:03.726Z,99.90
2022-10-23T05:22:06.650Z,99.90
2022-10-23T05:23:24.362Z,99.90
2022-10-23T05:24:30.176Z,99.90
2022-10-23T05:25:36.371Z,99.90
2022-10-23T05:26:51.656Z,99.90
2022-10-23T05:27:55.564Z,99.90
2022-10-23T05:28:57.784Z,99.90
2022-10-23T05:29:59.833Z,99.90
2022-10-23T05:31:05.994Z,99.90
2022-10-23T05:32:12.382Z,99.90
2022-10-23T05:33:14.746Z,99.90
2022-10-23T05:34:20.566Z,99.90
2022-10-23T05:35:23.932Z,99.90
2022-10-23T05:36:27.408Z,99.90
2022-10-23T05:37:32.877Z,99.90
2022-10-23T05:38:42.951Z,99.90
2022-10-23T05:39:49.452Z,99.90
2022-10-23T05:40:53.843Z,99.90
2022-10-23T05:41:57.465Z,99.90
2022-10-23T05:43:00.331Z,99.90
2022-10-23T05:44:22.466Z,99.90
2022-10-23T05:45:55.980Z,99.90
2022-10-23T05:47:07.929Z,99.90
2022-10-23T05:48:35.782Z,99.90
2022-10-23T05:49:44.099Z,99.90
2022-10-23T05:51:20.208Z,99.90
2022-10-23T05:52:48.896Z,99.90
2022-10-23T05:54:11.158Z,99.90
2022-10-23T05:55:18.197Z,99.90
2022-10-23T05:56:20.001Z,99.90
2022-10-23T05:57:51.082Z,99.90
2022-10-23T05:59:01.116Z,99.90
2022-10-23T06:00:21.079Z,99.90
2022-10-23T06:01:38.786Z,99.90
2022-10-23T06:02:42.217Z,99.90
2022-10-23T06:04:02.039Z,99.90
2022-10-23T06:05:19.671Z,99.90
2022-10-23T06:06:36.857Z,99.90
2022-10-23T06:07:38.948Z,99.90
2022-10-23T06:08:42.184Z,99.90
2022-10-23T06:09:44.294Z,99.90
2022-10-23T06:10:46.235Z,99.90
2022-10-23T06:11:48.201Z,99.90
2022-10-23T06:12:55.105Z,99.90
2022-10-23T06:14:59.326Z,99.90
2022-10-23T06:16:16.461Z,99.90
2022-10-23T06:17:18.314Z,99.90
2022-10-23T06:18:21.964Z,99.90
2022-10-23T06:19:31.289Z,99.90
2022-10-23T06:20:37.283Z,99.90
2022-10-23T06:21:56.277Z,99.90
2022-10-23T06:23:08.539Z,99.90
2022-10-23T06:24:28.965Z,99.90
2022-10-23T06:25:36.115Z,99.90
2022-10-23T06:26:39.783Z,99.90
2022-10-23T06:27:44.906Z,99.90
2022-10-23T06:28:47.011Z,99.90
2022-10-23T06:29:48.995Z,99.90
2022-10-23T06:30:50.932Z,99.90
2022-10-23T06:31:52.904Z,99.90
2022-10-23T06:32:54.908Z,99.90
2022-10-23T06:33:58.447Z,99.90
2022-10-23T06:35:00.795Z,99.90
2022-10-23T06:36:05.567Z,99.90
2022-10-23T06:37:08.444Z,99.90
2022-10-23T06:38:21.366Z,99.90
2022-10-23T06:39:31.937Z,99.90
2022-10-23T06:40:56.215Z,99.90
2022-10-23T06:42:07.920Z,99.90
2022-10-23T06:43:28.457Z,99.90
2022-10-23T06:44:49.353Z,99.90
2022-10-23T06:46:04.790Z,99.90
2022-10-23T06:47:25.339Z,99.90
2022-10-23T06:49:02.989Z,99.90
2022-10-23T06:50:11.762Z,99.90
2022-10-23T06:51:18.432Z,99.90
2022-10-23T06:52:45.321Z,99.90
2022-10-23T06:53:43.658Z,99.90
2022-10-23T06:55:08.931Z,99.90
2022-10-23T06:56:13.283Z,99.90
2022-10-23T06:57:15.244Z,99.90
2022-10-23T06:58:20.610Z,99.90
2022-10-23T06:59:34.499Z,99.90
2022-10-23T07:00:38.854Z,99.90
2022-10-23T07:01:41.470Z,99.90
2022-10-23T07:02:45.155Z,99.90
2022-10-23T07:03:48.957Z,99.90
2022-10-23T07:04:54.817Z,99.90
2022-10-23T07:05:59.835Z,99.90
2022-10-23T07:07:01.978Z,99.90
2022-10-23T07:08:13.060Z,99.90
2022-10-23T07:09:17.478Z,99.90
2022-10-23T07:10:43.055Z,99.90
2022-10-23T07:11:45.078Z,99.90
2022-10-23T07:12:48.966Z,99.90
2022-10-23T07:14:20.181Z,99.90
2022-10-23T07:15:22.474Z,99.90
2022-10-23T07:16:25.159Z,99.90
2022-10-23T07:17:29.226Z,99.90
2022-10-23T07:18:31.221Z,99.90
2022-10-23T07:19:52.336Z,99.90
2022-10-23T07:20:58.477Z,99.90
2022-10-23T07:22:00.603Z,99.90
2022-10-23T07:23:13.889Z,99.90
2022-10-23T07:24:15.901Z,99.90
2022-10-23T07:25:18.384Z,99.90
2022-10-23T07:26:20.464Z,99.90
2022-10-23T07:27:23.402Z,99.90
2022-10-23T07:28:30.720Z,99.90
2022-10-23T07:29:32.937Z,99.90
2022-10-23T07:30:34.874Z,99.90
2022-10-23T07:31:37.815Z,99.90
2022-10-23T07:32:58.515Z,99.90
2022-10-23T07:34:13.355Z,99.90
2022-10-23T07:35:18.796Z,99.90
2022-10-23T07:36:29.781Z,99.90
2022-10-23T07:37:31.669Z,99.90
2022-10-23T07:38:36.490Z,99.90
2022-10-23T07:39:38.443Z,99.90
2022-10-23T07:40:40.440Z,99.90
2022-10-23T07:41:45.402Z,99.90
2022-10-23T07:42:47.250Z,99.90
2022-10-23T07:43:50.257Z,99.90
2022-10-23T07:44:52.220Z,99.90
2022-10-23T07:45:54.600Z,99.90
2022-10-23T07:47:09.834Z,99.90
2022-10-23T07:48:13.653Z,99.90
2022-10-23T07:49:32.786Z,99.90
2022-10-23T07:50:37.389Z,99.90
2022-10-23T07:51:39.625Z,99.90
2022-10-23T07:52:44.581Z,99.90
2022-10-23T07:53:48.594Z,99.90
2022-10-23T07:55:26.011Z,99.90
2022-10-23T07:56:38.206Z,99.90
2022-10-23T07:57:56.075Z,99.90
2022-10-23T07:59:14.869Z,99.90
2022-10-23T08:00:21.747Z,99.90
2022-10-23T08:01:37.786Z,99.90
2022-10-23T08:02:40.226Z,99.90
2022-10-23T08:03:44.596Z,99.90
2022-10-23T08:04:49.577Z,99.90
2022-10-23T08:06:07.716Z,99.90
2022-10-23T08:07:10.019Z,99.90
2022-10-23T08:08:16.591Z,99.90
2022-10-23T08:09:22.067Z,99.90
2022-10-23T08:10:24.459Z,99.90
2022-10-23T08:11:28.277Z,99.90
2022-10-23T08:12:30.702Z,99.90
2022-10-23T08:13:32.621Z,99.90
2022-10-23T08:14:39.521Z,99.90
2022-10-23T08:15:44.348Z,99.90
2022-10-23T08:17:05.339Z,99.90
2022-10-23T08:18:34.206Z,99.90
2022-10-23T08:19:36.896Z,99.90
2022-10-23T08:20:47.866Z,99.90
2022-10-23T08:21:50.018Z,99.90
2022-10-23T08:22:53.455Z,99.90
2022-10-23T08:24:00.813Z,99.90
2022-10-23T08:25:06.442Z,99.90
2022-10-23T08:26:09.071Z,99.90
2022-10-23T08:27:11.073Z,99.90
2022-10-23T08:28:18.182Z,99.90
2022-10-23T08:29:28.777Z,99.90
2022-10-23T08:30:30.725Z,99.90
2022-10-23T08:31:33.819Z,99.90
2022-10-23T08:32:56.009Z,99.90
2022-10-23T08:33:57.962Z,99.90
2022-10-23T08:34:59.987Z,99.90
2022-10-23T08:36:07.642Z,99.90
2022-10-23T08:37:09.882Z,99.90
2022-10-23T08:38:11.983Z,99.90
2022-10-23T08:39:18.919Z,99.90
2022-10-23T08:40:35.832Z,99.90
2022-10-23T08:41:56.232Z,99.90
2022-10-23T08:43:05.458Z,99.90
2022-10-23T08:44:31.816Z,99.90
2022-10-23T08:45:50.883Z,99.90
2022-10-23T08:47:43.860Z,99.90
2022-10-23T08:48:49.770Z,99.90
2022-10-23T08:50:19.919Z,99.90
2022-10-23T08:51:29.511Z,99.90
2022-10-23T08:52:31.315Z,99.90
2022-10-23T08:53:45.135Z,99.90
2022-10-23T08:54:57.881Z,99.90
2022-10-23T08:56:24.344Z,99.90
2022-10-23T08:57:35.529Z,99.90
2022-10-23T08:58:54.120Z,99.90
2022-10-23T09:00:07.533Z,99.90
2022-10-23T09:01:40.085Z,99.90
2022-10-23T09:02:48.775Z,99.90
2022-10-23T09:03:51.175Z,99.90
2022-10-23T09:04:55.543Z,99.90
2022-10-23T09:06:08.939Z,99.90
2022-10-23T09:07:29.677Z,99.90
2022-10-23T09:08:31.674Z,99.90
2022-10-23T09:09:53.144Z,99.90
2022-10-23T09:11:34.475Z,99.90
2022-10-23T09:12:36.979Z,99.90
2022-10-23T09:13:42.783Z,99.90
2022-10-23T09:15:11.354Z,99.90
2022-10-23T09:16:28.958Z,99.90
2022-10-23T09:17:35.891Z,99.90
2022-10-23T09:18:41.171Z,99.90
2022-10-23T09:19:46.513Z,99.90
2022-10-23T09:20:48.704Z,99.90
2022-10-23T09:21:50.812Z,99.90
2022-10-23T09:23:00.180Z,99.90
2022-10-23T09:24:02.168Z,99.90
2022-10-23T09:25:16.432Z,99.90
2022-10-23T09:26:18.699Z,99.90
2022-10-23T09:27:20.972Z,99.90
2022-10-23T09:28:30.702Z,99.90
2022-10-23T09:29:36.003Z,99.90
2022-10-23T09:30:41.425Z,99.90
2022-10-23T09:31:54.831Z,99.90
2022-10-23T09:32:56.908Z,99.90
2022-10-23T09:34:01.475Z,99.90
2022-10-23T09:35:04.599Z,99.90
2022-10-23T09:36:20.081Z,99.90
2022-10-23T09:37:26.804Z,99.90
2022-10-23T09:38:35.100Z,99.90
2022-10-23T09:39:37.160Z,99.90
2022-10-23T09:40:42.063Z,99.90
2022-10-23T09:41:44.049Z,99.90
2022-10-23T09:43:12.517Z,99.90
2022-10-23T09:44:30.617Z,99.90
2022-10-23T09:45:36.179Z,99.90
2022-10-23T09:46:44.799Z,99.90
2022-10-23T09:47:47.039Z,99.90
2022-10-23T09:49:00.843Z,99.90
2022-10-23T09:50:20.700Z,99.90
2022-10-23T09:51:22.824Z,99.90
2022-10-23T09:52:34.976Z,99.90
2022-10-23T09:53:54.286Z,99.90
2022-10-23T09:55:15.352Z,99.90
2022-10-23T09:56:31.968Z,99.90
2022-10-23T09:57:44.875Z,99.90
2022-10-23T09:58:55.717Z,99.90
2022-10-23T10:00:12.068Z,99.90
2022-10-23T10:01:25.265Z,99.90
2022-10-23T10:02:35.912Z,99.90
2022-10-23T10:03:50.219Z,99.90
2022-10-23T10:04:54.701Z,99.90
2022-10-23T10:05:59.585Z,99.90
2022-10-23T10:07:04.016Z,99.90
2022-10-23T10:08:23.980Z,99.90
2022-10-23T10:09:26.020Z,99.90
2022-10-23T10:10:35.884Z,99.90
2022-10-23T10:11:50.010Z,99.90
2022-10-23T10:12:59.399Z,99.90
2022-10-23T10:14:39.725Z,99.90
2022-10-23T10:15:52.945Z,99.90
2022-10-23T10:17:14.520Z,99.90
2022-10-23T10:18:36.941Z,99.90
2022-10-23T10:19:38.683Z,99.90
2022-10-23T10:21:15.287Z,99.90
2022-10-23T10:22:28.867Z,99.90
2022-10-23T10:24:07.479Z,99.90
2022-10-23T10:25:12.830Z,99.90
2022-10-23T10:26:26.733Z,99.90
2022-10-23T10:27:43.607Z,99.90
2022-10-23T10:28:51.844Z,99.90
2022-10-23T10:30:24.432Z,99.90
2022-10-23T10:31:43.690Z,99.90
2022-10-23T10:33:09.322Z,99.90
2022-10-23T10:34:25.323Z,99.90
2022-10-23T10:35:42.960Z,99.90
2022-10-23T10:36:53.926Z,99.90
2022-10-23T10:38:15.514Z,99.90
2022-10-23T10:39:49.820Z,99.90
2022-10-23T10:41:25.114Z,99.90
2022-10-23T10:42:38.741Z,99.90
2022-10-23T10:44:13.144Z,99.90
2022-10-23T10:45:38.424Z,99.90
2022-10-23T10:46:51.636Z,99.90
2022-10-23T10:48:03.339Z,99.90
2022-10-23T10:49:18.899Z,99.90
2022-10-23T10:50:55.993Z,99.90
2022-10-23T10:52:32.212Z,99.90
2022-10-23T10:53:55.460Z,99.90
2022-10-23T10:55:14.910Z,99.90
2022-10-23T10:56:19.129Z,99.90
2022-10-23T10:57:38.238Z,99.90
2022-10-23T10:58:57.792Z,99.90
2022-10-23T11:00:05.018Z,99.90
2022-10-23T11:01:29.009Z,99.90
2022-10-23T11:02:45.919Z,99.90
2022-10-23T11:03:59.873Z,99.90
2022-10-23T11:05:24.824Z,99.90
2022-10-23T11:06:30.686Z,99.90
2022-10-23T11:07:38.179Z,99.90
2022-10-23T11:08:56.200Z,99.90
2022-10-23T11:10:03.403Z,99.90
2022-10-23T11:11:13.197Z,99.90
2022-10-23T11:12:19.479Z,99.90
2022-10-23T11:13:43.241Z,99.90
2022-10-23T11:14:45.988Z,99.90
2022-10-23T11:15:48.508Z,99.90
2022-10-23T11:16:53.108Z,99.90
2022-10-23T11:18:01.807Z,99.90
2022-10-23T11:19:18.297Z,99.90
2022-10-23T11:20:34.689Z,99.90
2022-10-23T11:21:44.251Z,99.90
2022-10-23T11:22:58.325Z,99.90
2022-10-23T11:24:18.725Z,99.90
2022-10-23T11:25:39.434Z,99.90
2022-10-23T11:27:02.141Z,99.90
2022-10-23T11:28:33.730Z,99.90
2022-10-23T11:29:57.181Z,99.90
2022-10-23T11:31:38.341Z,99.90
2022-10-23T11:33:01.072Z,99.90
2022-10-23T11:34:33.183Z,99.90
2022-10-23T11:35:43.195Z,99.90
2022-10-23T11:36:47.704Z,99.90
2022-10-23T11:38:15.335Z,99.90
2022-10-23T11:39:29.557Z,99.90
2022-10-23T11:40:54.615Z,99.90
2022-10-23T11:41:57.587Z,99.90
2022-10-23T11:42:59.429Z,99.90
2022-10-23T11:44:04.929Z,99.90
2022-10-23T11:45:26.082Z,99.90
2022-10-23T11:46:38.925Z,99.90
2022-10-23T11:47:43.225Z,99.90
2022-10-23T11:48:45.317Z,99.90
2022-10-23T11:49:47.145Z,99.90
2022-10-23T11:50:49.508Z,99.90
2022-10-23T11:52:04.152Z,99.90
2022-10-23T11:53:23.668Z,99.90
2022-10-23T11:54:27.057Z,99.90
2022-10-23T11:55:30.844Z,99.90
2022-10-23T11:56:34.167Z,99.90
2022-10-23T11:57:35.988Z,99.90
2022-10-23T11:58:56.713Z,99.90
2022-10-23T11:59:58.701Z,99.90
2022-10-23T12:01:17.808Z,99.90
2022-10-23T12:02:33.099Z,99.90
2022-10-23T12:04:12.307Z,99.90
2022-10-23T12:05:37.693Z,99.90
2022-10-23T12:06:46.633Z,99.90
2022-10-23T12:07:55.990Z,99.90
2022-10-23T12:09:02.438Z,99.90
2022-10-23T12:10:23.666Z,99.90
2022-10-23T12:12:00.545Z,99.90
2022-10-23T12:13:06.265Z,99.90
2022-10-23T12:14:32.520Z,99.90
2022-10-23T12:15:34.970Z,99.90
2022-10-23T12:16:36.969Z,99.90
2022-10-23T12:17:40.296Z,99.90
2022-10-23T12:18:55.759Z,99.90
2022-10-23T12:20:24.977Z,99.90
2022-10-23T12:21:28.345Z,99.90
2022-10-23T12:22:49.751Z,99.90
2022-10-23T12:24:22.708Z,99.90
2022-10-23T12:25:50.307Z,99.90
2022-10-23T12:27:21.697Z,99.90
2022-10-23T12:28:49.869Z,99.90
2022-10-23T12:30:15.250Z,99.90
2022-10-23T12:31:29.724Z,99.90
2022-10-23T12:32:52.415Z,99.90
2022-10-23T12:34:15.380Z,99.90
2022-10-23T12:35:54.548Z,99.90
2022-10-23T12:37:11.159Z,99.90
2022-10-23T12:38:19.524Z,99.90
2022-10-23T12:39:32.241Z,99.90
2022-10-23T12:40:34.178Z,99.90
2022-10-23T12:41:39.036Z,99.90
2022-10-23T12:42:49.808Z,99.70
2022-10-23T12:43:54.964Z,99.90
2022-10-23T12:45:15.778Z,99.80
2022-10-23T12:46:49.915Z,99.70
2022-10-23T12:47:52.430Z,99.80
2022-10-23T12:48:56.709Z,99.70
2022-10-23T12:49:58.644Z,99.70
2022-10-23T12:51:00.523Z,99.50
2022-10-23T12:52:07.148Z,99.50
2022-10-23T12:53:17.243Z,99.50
2022-10-23T12:54:21.175Z,99.50
2022-10-23T12:55:24.636Z,99.20
2022-10-23T12:56:29.518Z,99.20
2022-10-23T12:57:42.421Z,99.40
2022-10-23T12:58:56.873Z,99.50
2022-10-23T13:00:08.201Z,99.30
2022-10-23T13:01:32.487Z,99.30
2022-10-23T13:02:35.143Z,99.50
2022-10-23T13:03:38.656Z,99.60
2022-10-23T13:04:41.496Z,99.60
2022-10-23T13:05:44.608Z,99.50
2022-10-23T13:06:47.485Z,99.70
2022-10-23T13:07:51.006Z,99.70
2022-10-23T13:09:01.041Z,99.70
2022-10-23T13:10:23.690Z,99.70
2022-10-23T13:11:30.214Z,99.60
2022-10-23T13:12:38.682Z,99.70
2022-10-23T13:13:42.052Z,99.50
2022-10-23T13:14:56.784Z,99.50
2022-10-23T13:15:58.817Z,99.70
2022-10-23T13:17:06.438Z,99.70
2022-10-23T13:18:10.530Z,99.60
2022-10-23T13:19:26.190Z,99.40
2022-10-23T13:20:35.240Z,99.30
2022-10-23T13:21:37.136Z,99.40
2022-10-23T13:22:41.051Z,99.40
2022-10-23T13:23:43.565Z,99.50
2022-10-23T13:24:45.629Z,99.40
2022-10-23T13:25:56.043Z,99.40
2022-10-23T13:26:58.744Z,99.50
2022-10-23T13:28:21.623Z,99.70
2022-10-23T13:29:28.058Z,99.80
2022-10-23T13:30:43.086Z,99.70
2022-10-23T13:31:45.054Z,99.80
2022-10-23T13:32:47.069Z,99.90
2022-10-23T13:33:53.135Z,99.80
2022-10-23T13:35:04.239Z,99.60
2022-10-23T13:36:18.702Z,99.60
2022-10-23T13:37:26.251Z,99.70
2022-10-23T13:38:32.250Z,99.70
2022-10-23T13:39:34.665Z,99.70
2022-10-23T13:40:36.762Z,99.80
2022-10-23T13:41:42.171Z,99.80
2022-10-23T13:42:44.254Z,99.70
2022-10-23T13:43:47.971Z,99.80
2022-10-23T13:44:50.647Z,99.70
2022-10-23T13:45:52.563Z,99.70
2022-10-23T13:46:54.464Z,99.70
2022-10-23T13:47:56.303Z,99.70
2022-10-23T13:48:58.252Z,99.70
2022-10-23T13:50:00.253Z,99.70
2022-10-23T13:51:13.579Z,99.80
2022-10-23T13:52:20.207Z,99.70
2022-10-23T13:53:22.017Z,99.70
2022-10-23T13:55:28.816Z,99.80
2022-10-23T13:56:30.877Z,99.70
2022-10-23T13:57:32.767Z,99.80
2022-10-23T13:58:34.519Z,99.90
2022-10-23T13:59:36.362Z,99.90
2022-10-23T14:00:39.833Z,99.90
2022-10-23T14:01:42.844Z,99.90
2022-10-23T14:02:45.387Z,99.90
2022-10-23T14:03:47.816Z,99.90
2022-10-23T14:04:50.843Z,99.90
2022-10-23T14:05:53.012Z,99.90
2022-10-23T14:06:58.506Z,99.90
2022-10-23T14:08:00.627Z,99.90
2022-10-23T14:09:02.499Z,99.90
2022-10-23T14:10:05.089Z,99.90
2022-10-23T14:11:07.244Z,99.90
2022-10-23T14:12:09.169Z,99.90
2022-10-23T14:13:11.168Z,99.90
2022-10-23T14:14:13.093Z,99.90
2022-10-23T14:15:15.807Z,99.70
2022-10-23T14:16:20.523Z,99.70
2022-10-23T14:17:22.708Z,99.80
2022-10-23T14:18:24.761Z,99.90
2022-10-23T14:19:26.773Z,99.70
2022-10-23T14:20:29.318Z,99.50
2022-10-23T14:21:31.241Z,99.60
2022-10-23T14:22:33.206Z,99.70
2022-10-23T14:23:35.107Z,99.70
2022-10-23T14:24:37.288Z,99.80
2022-10-23T14:25:39.165Z,99.80
2022-10-23T14:26:41.131Z,99.30
2022-10-23T14:27:43.067Z,99.40
2022-10-23T14:28:44.891Z,99.40
2022-10-23T14:29:46.774Z,99.60
2022-10-23T14:30:48.754Z,99.40
2022-10-23T14:31:51.154Z,99.50
2022-10-23T14:32:53.091Z,99.50
2022-10-23T14:34:00.589Z,99.80
2022-10-23T14:35:04.001Z,99.40
2022-10-23T14:36:06.853Z,99.40
2022-10-23T14:37:09.426Z,99.40
2022-10-23T14:38:11.467Z,99.40
2022-10-23T14:39:13.483Z,99.40
2022-10-23T14:40:15.912Z,99.50
2022-10-23T14:41:18.547Z,99.40
2022-10-23T14:42:20.560Z,99.30
2022-10-23T14:43:23.633Z,99.40
2022-10-23T14:44:25.613Z,98.80
2022-10-23T14:45:27.583Z,98.60
2022-10-23T14:46:29.573Z,98.40
2022-10-23T14:47:32.071Z,98.90
2022-10-23T14:48:37.667Z,99.00
2022-10-23T14:49:40.526Z,98.70
2022-10-23T14:50:47.768Z,98.90
2022-10-23T14:51:49.954Z,99.10
2022-10-23T14:52:51.868Z,99.20
2022-10-23T14:54:02.214Z,98.90
2022-10-23T14:55:04.372Z,99.10
2022-10-23T14:56:11.831Z,98.90
2022-10-23T14:57:18.489Z,99.20